createdAt,value
2023-01-11T00:00:38.895Z,15.50
2023-01-11T00:01:38.805Z,20.10
2023-01-11T00:02:38.778Z,19.10
2023-01-11T00:03:38.698Z,18.80
2023-01-11T00:04:38.617Z,19.20
2023-01-11T00:05:38.496Z,19.10
2023-01-11T00:06:38.465Z,19.70
2023-01-11T00:07:38.375Z,17.10
2023-01-11T00:08:38.241Z,20.30
2023-01-11T00:09:38.180Z,17.50
2023-01-11T00:10:38.104Z,18.00
2023-01-11T00:11:38.025Z,17.50
2023-01-11T00:12:37.919Z,19.20
2023-01-11T00:13:37.850Z,20.50
2023-01-11T00:14:37.770Z,21.80
2023-01-11T00:15:37.682Z,17.80
2023-01-11T00:16:37.605Z,16.50
2023-01-11T00:17:37.529Z,18.90
2023-01-11T00:18:37.457Z,21.30
2023-01-11T00:19:37.420Z,15.90
2023-01-11T00:20:37.311Z,18.40
2023-01-11T00:21:37.260Z,18.30
2023-01-11T00:22:37.144Z,21.40
2023-01-11T00:23:37.070Z,14.80
2023-01-11T00:24:37.008Z,14.40
2023-01-11T00:25:36.919Z,20.70
2023-01-11T00:26:36.809Z,21.20
2023-01-11T00:27:36.761Z,19.10
2023-01-11T00:28:36.668Z,21.20
2023-01-11T00:29:36.570Z,15.60
2023-01-11T00:30:36.542Z,18.20
2023-01-11T00:31:36.526Z,21.30
2023-01-11T00:32:36.354Z,23.60
2023-01-11T00:33:36.296Z,21.00
2023-01-11T00:34:36.225Z,19.80
2023-01-11T00:35:36.145Z,21.10
2023-01-11T00:36:36.054Z,19.60
2023-01-11T00:37:35.966Z,21.20
2023-01-11T00:38:35.884Z,19.10
2023-01-11T00:39:35.816Z,21.50
2023-01-11T00:40:35.744Z,23.60
2023-01-11T00:41:35.664Z,21.50
2023-01-11T00:42:35.574Z,22.70
2023-01-11T00:43:35.524Z,21.70
2023-01-11T00:44:35.428Z,23.00
2023-01-11T00:45:35.362Z,19.30
2023-01-11T00:46:35.287Z,21.50
2023-01-11T00:47:35.252Z,23.20
2023-01-11T00:48:35.121Z,24.70
2023-01-11T00:49:35.044Z,21.40
2023-01-11T00:50:34.955Z,22.10
2023-01-11T00:51:34.897Z,22.10
2023-01-11T00:52:34.808Z,24.30
2023-01-11T00:53:34.746Z,20.10
2023-01-11T00:54:34.657Z,22.70
2023-01-11T00:55:34.599Z,21.00
2023-01-11T00:56:34.510Z,20.30
2023-01-11T00:57:34.446Z,25.00
2023-01-11T00:58:34.354Z,23.30
2023-01-11T00:59:34.283Z,20.50
2023-01-11T01:00:34.200Z,24.90
2023-01-11T01:01:34.136Z,23.70
2023-01-11T01:02:34.079Z,20.90
2023-01-11T01:03:33.958Z,24.90
2023-01-11T01:04:33.866Z,21.10
2023-01-11T01:05:33.799Z,20.00
2023-01-11T01:06:33.740Z,23.50
2023-01-11T01:07:33.643Z,22.50
2023-01-11T01:08:33.566Z,24.40
2023-01-11T01:09:33.519Z,19.00
2023-01-11T01:10:33.403Z,21.40
2023-01-11T01:11:33.321Z,20.20
2023-01-11T01:12:33.240Z,23.40
2023-01-11T01:13:33.179Z,23.30
2023-01-11T01:14:33.144Z,23.10
2023-01-11T01:15:33.095Z,23.40
2023-01-11T01:16:32.937Z,22.30
2023-01-11T01:17:32.864Z,21.10
2023-01-11T01:18:32.815Z,23.20
2023-01-11T01:19:32.713Z,24.40
2023-01-11T01:20:32.637Z,23.10
2023-01-11T01:21:32.571Z,28.40
2023-01-11T01:22:32.495Z,22.40
2023-01-11T01:23:32.413Z,19.10
2023-01-11T01:24:32.346Z,22.40
2023-01-11T01:25:32.258Z,22.40
2023-01-11T01:26:32.172Z,23.40
2023-01-11T01:27:32.131Z,24.50
2023-01-11T01:28:32.033Z,26.60
2023-01-11T01:29:32.008Z,26.60
2023-01-11T01:30:31.872Z,26.90
2023-01-11T01:31:31.882Z,28.30
2023-01-11T01:32:31.715Z,26.40
2023-01-11T01:33:31.633Z,21.80
2023-01-11T01:34:31.561Z,21.80
2023-01-11T01:35:31.472Z,21.90
2023-01-11T01:36:31.389Z,25.00
2023-01-11T01:37:31.315Z,26.30
2023-01-11T01:38:31.252Z,22.70
2023-01-11T01:39:31.187Z,25.50
2023-01-11T01:40:31.084Z,19.40
2023-01-11T01:41:31.026Z,25.30
2023-01-11T01:42:30.939Z,21.90
2023-01-11T01:43:30.868Z,20.20
2023-01-11T01:44:30.815Z,24.00
2023-01-11T01:45:30.720Z,20.50
2023-01-11T01:46:30.705Z,26.00
2023-01-11T01:47:30.550Z,21.40
2023-01-11T01:48:30.486Z,21.00
2023-01-11T01:49:30.425Z,24.90
2023-01-11T01:50:30.346Z,23.20
2023-01-11T01:51:30.264Z,21.70
2023-01-11T01:52:30.188Z,23.90
2023-01-11T01:53:30.098Z,23.40
2023-01-11T01:54:30.016Z,25.20
2023-01-11T01:55:29.981Z,23.10
2023-01-11T01:56:29.870Z,27.80
2023-01-11T01:57:29.803Z,23.70
2023-01-11T01:58:29.698Z,21.60
2023-01-11T01:59:29.615Z,26.50
2023-01-11T02:00:29.546Z,24.10
2023-01-11T02:01:29.594Z,23.60
2023-01-11T02:02:29.407Z,24.90
2023-01-11T02:03:29.302Z,25.40
2023-01-11T02:04:29.207Z,23.30
2023-01-11T02:05:29.138Z,20.30
2023-01-11T02:06:29.081Z,24.70
2023-01-11T02:07:28.952Z,26.30
2023-01-11T02:08:28.891Z,27.10
2023-01-11T02:09:28.789Z,25.80
2023-01-11T02:10:28.720Z,23.50
2023-01-11T02:11:28.649Z,25.10
2023-01-11T02:12:30.269Z,20.80
2023-01-11T02:13:28.472Z,22.00
2023-01-11T02:14:28.380Z,20.40
2023-01-11T02:15:28.323Z,20.70
2023-01-11T02:16:28.231Z,23.70
2023-01-11T02:17:28.152Z,26.30
2023-01-11T02:18:28.061Z,23.10
2023-01-11T02:19:27.992Z,24.60
2023-01-11T02:20:27.919Z,25.40
2023-01-11T02:21:27.831Z,23.70
2023-01-11T02:22:27.793Z,22.00
2023-01-11T02:23:27.673Z,26.90
2023-01-11T02:24:27.582Z,21.70
2023-01-11T02:25:27.532Z,24.00
2023-01-11T02:26:27.453Z,23.90
2023-01-11T02:27:27.366Z,23.70
2023-01-11T02:28:27.272Z,22.80
2023-01-11T02:29:27.191Z,17.90
2023-01-11T02:30:27.103Z,22.60
2023-01-11T02:31:27.074Z,24.90
2023-01-11T02:32:26.923Z,23.80
2023-01-11T02:33:26.844Z,21.60
2023-01-11T02:34:26.760Z,24.40
2023-01-11T02:35:26.697Z,25.00
2023-01-11T02:36:26.593Z,30.60
2023-01-11T02:37:26.510Z,26.10
2023-01-11T02:38:26.425Z,29.00
2023-01-11T02:39:26.332Z,27.20
2023-01-11T02:40:26.245Z,27.20
2023-01-11T02:41:26.177Z,24.20
2023-01-11T02:42:26.090Z,30.80
2023-01-11T02:43:25.993Z,25.70
2023-01-11T02:44:25.904Z,21.70
2023-01-11T02:45:25.819Z,24.80
2023-01-11T02:46:25.775Z,32.10
2023-01-11T02:47:25.658Z,34.60
2023-01-11T02:48:25.588Z,30.90
2023-01-11T02:49:25.476Z,29.20
2023-01-11T02:50:25.390Z,28.20
2023-01-11T02:51:25.325Z,29.60
2023-01-11T02:52:25.240Z,23.50
2023-01-11T02:53:25.150Z,26.70
2023-01-11T02:54:25.079Z,24.20
2023-01-11T02:55:25.007Z,25.60
2023-01-11T02:56:24.908Z,29.90
2023-01-11T02:57:24.826Z,29.10
2023-01-11T02:58:24.759Z,33.90
2023-01-11T02:59:24.662Z,34.60
2023-01-11T03:00:24.569Z,34.40
2023-01-11T03:01:24.551Z,32.90
2023-01-11T03:02:24.424Z,33.00
2023-01-11T03:03:24.339Z,30.90
2023-01-11T03:04:24.258Z,32.30
2023-01-11T03:05:24.173Z,33.60
2023-01-11T03:06:24.124Z,26.90
2023-01-11T03:07:24.019Z,32.50
2023-01-11T03:08:23.959Z,31.40
2023-01-11T03:09:23.867Z,30.20
2023-01-11T03:10:23.791Z,37.30
2023-01-11T03:11:23.700Z,30.00
2023-01-11T03:12:23.636Z,32.10
2023-01-11T03:13:23.541Z,34.60
2023-01-11T03:14:23.473Z,34.30
2023-01-11T03:15:23.381Z,34.00
2023-01-11T03:16:23.358Z,36.70
2023-01-11T03:17:23.228Z,34.50
2023-01-11T03:18:23.167Z,31.70
2023-01-11T03:19:23.092Z,41.50
2023-01-11T03:20:22.999Z,28.10
2023-01-11T03:21:22.937Z,29.90
2023-01-11T03:22:22.854Z,32.20
2023-01-11T03:23:22.792Z,31.50
2023-01-11T03:24:22.713Z,30.50
2023-01-11T03:25:22.656Z,35.70
2023-01-11T03:26:22.564Z,25.70
2023-01-11T03:27:22.483Z,26.60
2023-01-11T03:28:22.407Z,33.40
2023-01-11T03:29:22.312Z,29.30
2023-01-11T03:30:22.245Z,26.00
2023-01-11T03:31:22.206Z,25.30
2023-01-11T03:32:22.097Z,26.90
2023-01-11T03:33:22.015Z,28.90
2023-01-11T03:34:21.926Z,22.50
2023-01-11T03:35:21.872Z,27.40
2023-01-11T03:36:21.783Z,28.90
2023-01-11T03:37:21.705Z,23.80
2023-01-11T03:38:21.622Z,24.60
2023-01-11T03:39:21.554Z,25.70
2023-01-11T03:40:21.488Z,27.50
2023-01-11T03:41:21.393Z,25.60
2023-01-11T03:42:21.315Z,29.70
2023-01-11T03:43:21.247Z,23.80
2023-01-11T03:44:21.174Z,23.80
2023-01-11T03:45:21.097Z,26.30
2023-01-11T03:46:21.059Z,26.70
2023-01-11T03:47:20.950Z,24.60
2023-01-11T03:48:20.845Z,23.90
2023-01-11T03:49:20.784Z,22.60
2023-01-11T03:50:20.707Z,19.20
2023-01-11T03:51:20.608Z,26.60
2023-01-11T03:52:20.539Z,26.40
2023-01-11T03:53:20.461Z,24.60
2023-01-11T03:54:20.393Z,26.40
2023-01-11T03:55:20.298Z,26.50
2023-01-11T03:56:20.235Z,30.40
2023-01-11T03:57:20.161Z,27.80
2023-01-11T03:58:20.075Z,26.10
2023-01-11T03:59:20.001Z,25.80
2023-01-11T04:00:19.917Z,26.60
2023-01-11T04:01:19.857Z,24.40
2023-01-11T04:02:19.766Z,25.00
2023-01-11T04:03:19.666Z,22.20
2023-01-11T04:04:19.645Z,23.90
2023-01-11T04:05:19.512Z,21.70
2023-01-11T04:06:19.445Z,25.10
2023-01-11T04:07:19.332Z,23.10
2023-01-11T04:08:19.255Z,25.10
2023-01-11T04:09:19.207Z,25.90
2023-01-11T04:10:19.072Z,24.50
2023-01-11T04:11:19.012Z,29.60
2023-01-11T04:12:18.935Z,27.40
2023-01-11T04:13:18.830Z,31.00
2023-01-11T04:14:18.751Z,33.60
2023-01-11T04:15:18.875Z,34.20
2023-01-11T04:16:18.623Z,36.40
2023-01-11T04:17:18.512Z,39.10
2023-01-11T04:18:18.413Z,38.90
2023-01-11T04:19:18.359Z,39.00
2023-01-11T04:20:18.278Z,39.00
2023-01-11T04:21:18.174Z,42.70
2023-01-11T04:22:18.102Z,35.60
2023-01-11T04:23:18.014Z,46.80
2023-01-11T04:24:17.949Z,43.10
2023-01-11T04:25:17.866Z,48.40
2023-01-11T04:26:17.793Z,45.80
2023-01-11T04:27:17.704Z,42.30
2023-01-11T04:28:17.646Z,48.60
2023-01-11T04:29:17.571Z,47.60
2023-01-11T04:30:17.488Z,47.70
2023-01-11T04:31:17.503Z,47.50
2023-01-11T04:32:17.340Z,45.20
2023-01-11T04:33:17.277Z,50.00
2023-01-11T04:34:17.186Z,73.50
2023-01-11T04:35:17.108Z,55.60
2023-01-11T04:36:17.039Z,50.50
2023-01-11T04:37:16.977Z,56.90
2023-01-11T04:38:16.915Z,48.80
2023-01-11T04:39:16.841Z,60.70
2023-01-11T04:40:16.726Z,56.50
2023-01-11T04:41:16.649Z,59.40
2023-01-11T04:42:16.602Z,57.80
2023-01-11T04:43:16.510Z,62.10
2023-01-11T04:44:16.409Z,57.00
2023-01-11T04:45:16.348Z,64.70
2023-01-11T04:46:16.260Z,59.10
2023-01-11T04:47:16.193Z,70.50
2023-01-11T04:48:16.122Z,56.10
2023-01-11T04:49:16.049Z,55.10
2023-01-11T04:50:16.048Z,61.00
2023-01-11T04:51:15.880Z,50.70
2023-01-11T04:52:15.799Z,51.10
2023-01-11T04:53:15.738Z,46.50
2023-01-11T04:54:15.641Z,57.80
2023-01-11T04:55:15.671Z,50.70
2023-01-11T04:56:15.472Z,53.30
2023-01-11T04:57:15.388Z,53.50
2023-01-11T04:58:15.304Z,56.20
2023-01-11T04:59:15.229Z,52.70
2023-01-11T05:00:15.188Z,52.30
2023-01-11T05:01:15.104Z,47.60
2023-01-11T05:02:14.985Z,51.70
2023-01-11T05:03:14.891Z,54.30
2023-01-11T05:04:14.888Z,47.00
2023-01-11T05:05:14.748Z,53.70
2023-01-11T05:06:14.674Z,42.30
2023-01-11T05:07:14.592Z,43.10
2023-01-11T05:08:14.506Z,44.90
2023-01-11T05:09:14.513Z,44.30
2023-01-11T05:10:14.342Z,36.50
2023-01-11T05:11:14.274Z,40.40
2023-01-11T05:12:14.246Z,42.30
2023-01-11T05:13:14.111Z,40.50
2023-01-11T05:14:14.014Z,32.50
2023-01-11T05:15:13.947Z,38.20
2023-01-11T05:16:13.949Z,30.70
2023-01-11T05:17:13.784Z,29.10
2023-01-11T05:18:13.692Z,38.40
2023-01-11T05:19:13.615Z,36.10
2023-01-11T05:20:13.569Z,36.40
2023-01-11T05:21:13.443Z,37.60
2023-01-11T05:22:13.355Z,33.70
2023-01-11T05:23:13.296Z,37.60
2023-01-11T05:24:13.183Z,36.10
2023-01-11T05:25:13.130Z,37.30
2023-01-11T05:26:13.017Z,34.30
2023-01-11T05:27:12.954Z,37.80
2023-01-11T05:28:12.847Z,42.30
2023-01-11T05:29:12.758Z,38.70
2023-01-11T05:30:12.700Z,38.20
2023-01-11T05:31:12.588Z,40.90
2023-01-11T05:32:12.485Z,45.00
2023-01-11T05:33:12.419Z,45.80
2023-01-11T05:34:12.327Z,39.60
2023-01-11T05:35:12.258Z,43.30
2023-01-11T05:36:12.147Z,48.70
2023-01-11T05:37:12.057Z,49.70
2023-01-11T05:38:11.968Z,46.80
2023-01-11T05:39:11.923Z,50.60
2023-01-11T05:40:11.823Z,47.60
2023-01-11T05:41:11.751Z,55.30
2023-01-11T05:42:11.658Z,49.10
2023-01-11T05:43:11.579Z,51.10
2023-01-11T05:44:11.500Z,51.20
2023-01-11T05:45:11.449Z,63.20
2023-01-11T05:46:11.475Z,62.00
2023-01-11T05:47:11.267Z,58.80
2023-01-11T05:48:11.168Z,59.10
2023-01-11T05:49:11.103Z,68.40
2023-01-11T05:50:10.991Z,63.80
2023-01-11T05:51:10.938Z,71.20
2023-01-11T05:52:10.830Z,60.60
2023-01-11T05:53:10.769Z,66.50
2023-01-11T05:54:10.691Z,80.20
2023-01-11T05:55:10.603Z,72.20
2023-01-11T05:56:10.522Z,78.50
2023-01-11T05:57:10.443Z,73.30
2023-01-11T05:58:10.342Z,73.40
2023-01-11T05:59:10.253Z,68.40
2023-01-11T06:00:10.176Z,68.00
2023-01-11T06:01:10.090Z,61.80
2023-01-11T06:02:10.097Z,75.80
2023-01-11T06:03:09.997Z,69.30
2023-01-11T06:04:09.845Z,75.80
2023-01-11T06:05:09.756Z,76.50
2023-01-11T06:06:09.689Z,67.40
2023-01-11T06:07:09.592Z,65.60
2023-01-11T06:08:09.500Z,67.80
2023-01-11T06:09:09.407Z,70.10
2023-01-11T06:10:09.313Z,73.70
2023-01-11T06:11:09.234Z,64.00
2023-01-11T06:12:09.143Z,67.30
2023-01-11T06:13:09.044Z,76.70
2023-01-11T06:14:08.946Z,71.80
2023-01-11T06:15:08.853Z,75.90
2023-01-11T06:16:08.827Z,76.70
2023-01-11T06:17:08.710Z,66.30
2023-01-11T06:18:08.594Z,66.30
2023-01-11T06:19:08.513Z,62.40
2023-01-11T06:20:08.419Z,61.00
2023-01-11T06:21:08.334Z,58.80
2023-01-11T06:22:08.254Z,60.20
2023-01-11T06:23:08.154Z,58.20
2023-01-11T06:24:08.075Z,59.40
2023-01-11T06:25:07.981Z,65.80
2023-01-11T06:26:07.910Z,53.20
2023-01-11T06:27:07.820Z,52.80
2023-01-11T06:28:07.725Z,50.30
2023-01-11T06:29:07.635Z,56.50
2023-01-11T06:30:07.557Z,56.70
2023-01-11T06:31:07.539Z,52.00
2023-01-11T06:32:07.392Z,42.70
2023-01-11T06:33:07.305Z,44.90
2023-01-11T06:34:07.208Z,42.50
2023-01-11T06:35:07.110Z,47.50
2023-01-11T06:36:07.035Z,47.90
2023-01-11T06:37:06.976Z,53.10
2023-01-11T06:38:06.866Z,40.70
2023-01-11T06:39:06.776Z,49.00
2023-01-11T06:40:06.690Z,49.70
2023-01-11T06:41:06.599Z,46.80
2023-01-11T06:42:06.553Z,56.30
2023-01-11T06:43:06.448Z,44.80
2023-01-11T06:44:06.353Z,41.10
2023-01-11T06:45:06.287Z,38.80
2023-01-11T06:46:06.239Z,44.60
2023-01-11T06:47:06.103Z,49.50
2023-01-11T06:48:06.071Z,52.10
2023-01-11T06:49:05.945Z,48.50
2023-01-11T06:50:05.846Z,46.40
2023-01-11T06:51:05.768Z,50.80
2023-01-11T06:52:05.671Z,44.10
2023-01-11T06:53:05.586Z,46.50
2023-01-11T06:54:05.512Z,45.60
2023-01-11T06:55:05.435Z,43.10
2023-01-11T06:56:05.338Z,44.80
2023-01-11T06:57:05.247Z,44.20
2023-01-11T06:58:05.170Z,53.30
2023-01-11T06:59:05.071Z,50.30
2023-01-11T07:00:05.053Z,51.00
2023-01-11T07:01:04.949Z,54.20
2023-01-11T07:02:04.830Z,55.50
2023-01-11T07:03:04.752Z,55.50
2023-01-11T07:04:04.662Z,54.50
2023-01-11T07:05:04.615Z,56.90
2023-01-11T07:06:04.466Z,51.90
2023-01-11T07:07:04.388Z,59.30
2023-01-11T07:08:04.280Z,58.20
2023-01-11T07:09:04.203Z,61.40
2023-01-11T07:10:04.167Z,66.20
2023-01-11T07:11:04.086Z,62.10
2023-01-11T07:12:03.955Z,74.80
2023-01-11T07:13:03.849Z,66.90
2023-01-11T07:14:03.776Z,67.90
2023-01-11T07:15:03.723Z,68.10
2023-01-11T07:16:03.731Z,63.50
2023-01-11T07:17:03.516Z,67.00
2023-01-11T07:18:03.436Z,71.60
2023-01-11T07:19:03.341Z,67.80
2023-01-11T07:20:03.283Z,62.90
2023-01-11T07:21:03.174Z,71.50
2023-01-11T07:22:03.085Z,67.50
2023-01-11T07:23:02.987Z,58.80
2023-01-11T07:24:02.913Z,68.80
2023-01-11T07:25:02.831Z,57.90
2023-01-11T07:26:02.863Z,56.40
2023-01-11T07:27:02.650Z,65.50
2023-01-11T07:28:02.584Z,54.70
2023-01-11T07:29:02.498Z,70.50
2023-01-11T07:30:02.424Z,51.30
2023-01-11T07:31:02.464Z,60.60
2023-01-11T07:32:02.226Z,63.00
2023-01-11T07:33:02.140Z,58.50
2023-01-11T07:34:02.076Z,57.70
2023-01-11T07:35:01.974Z,63.20
2023-01-11T07:36:01.928Z,62.50
2023-01-11T07:37:01.807Z,69.80
2023-01-11T07:38:01.718Z,65.80
2023-01-11T07:39:01.642Z,67.00
2023-01-11T07:40:01.575Z,70.90
2023-01-11T07:41:01.484Z,71.30
2023-01-11T07:42:01.392Z,77.10
2023-01-11T07:43:01.311Z,66.80
2023-01-11T07:44:01.219Z,70.60
2023-01-11T07:45:01.141Z,71.20
2023-01-11T07:46:01.170Z,76.40
2023-01-11T07:47:01.017Z,78.50
2023-01-11T07:48:00.881Z,84.30
2023-01-11T07:49:00.811Z,71.70
2023-01-11T07:50:00.723Z,68.70
2023-01-11T07:51:00.621Z,71.00
2023-01-11T07:52:00.583Z,74.90
2023-01-11T07:53:00.490Z,70.50
2023-01-11T07:54:00.391Z,67.50
2023-01-11T07:55:00.281Z,67.00
2023-01-11T07:56:00.202Z,77.70
2023-01-11T07:57:00.148Z,79.50
2023-01-11T07:58:00.043Z,73.60
2023-01-11T07:58:59.943Z,72.60
2023-01-11T07:59:59.838Z,75.10
2023-01-11T08:00:59.755Z,74.30
2023-01-11T08:01:59.660Z,83.60
2023-01-11T08:02:59.670Z,81.00
2023-01-11T08:03:59.511Z,84.10
2023-01-11T08:05:00.366Z,76.20
2023-01-11T08:05:59.312Z,77.40
2023-01-11T08:06:59.204Z,72.20
2023-01-11T08:07:59.123Z,70.80
2023-01-11T08:08:59.051Z,61.10
2023-01-11T08:09:58.957Z,68.00
2023-01-11T08:10:58.853Z,65.60
2023-01-11T08:11:58.769Z,57.00
2023-01-11T08:12:58.715Z,53.50
2023-01-11T08:13:58.605Z,58.80
2023-01-11T08:14:58.504Z,61.50
2023-01-11T08:15:58.508Z,54.40
2023-01-11T08:16:58.325Z,61.70
2023-01-11T08:17:58.230Z,49.20
2023-01-11T08:18:58.157Z,52.20
2023-01-11T08:19:58.046Z,43.40
2023-01-11T08:20:57.949Z,50.40
2023-01-11T08:21:57.858Z,51.50
2023-01-11T08:22:57.788Z,48.40
2023-01-11T08:23:57.711Z,52.80
2023-01-11T08:24:57.587Z,50.70
2023-01-11T08:25:57.494Z,55.00
2023-01-11T08:26:57.509Z,54.80
2023-01-11T08:27:57.318Z,51.00
2023-01-11T08:28:57.217Z,54.10
2023-01-11T08:29:57.135Z,59.70
2023-01-11T08:30:57.083Z,56.40
2023-01-11T08:31:56.948Z,58.10
2023-01-11T08:32:56.887Z,60.10
2023-01-11T08:33:56.767Z,54.00
2023-01-11T08:34:56.700Z,60.70
2023-01-11T08:35:56.598Z,54.30
2023-01-11T08:36:56.511Z,56.70
2023-01-11T08:37:56.432Z,48.10
2023-01-11T08:38:56.312Z,47.00
2023-01-11T08:39:56.219Z,48.30
2023-01-11T08:40:56.161Z,40.40
2023-01-11T08:41:56.055Z,47.00
2023-01-11T08:42:55.962Z,42.90
2023-01-11T08:43:55.861Z,46.30
2023-01-11T08:44:55.761Z,47.00
2023-01-11T08:45:55.681Z,53.10
2023-01-11T08:46:55.604Z,50.30
2023-01-11T08:47:55.532Z,53.50
2023-01-11T08:48:55.412Z,49.20
2023-01-11T08:49:55.375Z,45.10
2023-01-11T08:50:55.260Z,45.80
2023-01-11T08:51:55.180Z,53.00
2023-01-11T08:52:55.122Z,42.00
2023-01-11T08:53:55.004Z,51.60
2023-01-11T08:54:54.902Z,48.40
2023-01-11T08:55:54.822Z,52.20
2023-01-11T08:56:54.733Z,49.00
2023-01-11T08:57:54.653Z,49.80
2023-01-11T08:58:54.574Z,43.30
2023-01-11T08:59:54.526Z,48.60
2023-01-11T09:00:54.401Z,48.10
2023-01-11T09:01:54.334Z,47.80
2023-01-11T09:02:54.238Z,47.60
2023-01-11T09:03:54.152Z,54.70
2023-01-11T09:04:54.041Z,43.90
2023-01-11T09:05:53.964Z,45.80
2023-01-11T09:06:53.865Z,51.30
2023-01-11T09:07:53.786Z,59.20
2023-01-11T09:08:53.678Z,49.60
2023-01-11T09:09:53.645Z,48.10
2023-01-11T09:10:53.595Z,46.00
2023-01-11T09:11:53.532Z,53.40
2023-01-11T09:12:53.367Z,47.80
2023-01-11T09:13:53.261Z,48.40
2023-01-11T09:14:53.156Z,50.10
2023-01-11T09:15:53.110Z,46.40
2023-01-11T09:16:52.986Z,43.90
2023-01-11T09:17:52.905Z,35.90
2023-01-11T09:18:52.820Z,41.70
2023-01-11T09:19:52.712Z,35.90
2023-01-11T09:20:52.638Z,41.00
2023-01-11T09:21:52.569Z,41.20
2023-01-11T09:22:52.989Z,34.00
2023-01-11T09:23:52.397Z,37.50
2023-01-11T09:24:52.311Z,39.20
2023-01-11T09:25:52.231Z,35.10
2023-01-11T09:26:52.188Z,35.90
2023-01-11T09:27:52.080Z,32.10
2023-01-11T09:28:51.994Z,34.20
2023-01-11T09:29:51.869Z,34.10
2023-01-11T09:30:51.770Z,27.30
2023-01-11T09:31:51.689Z,25.20
2023-01-11T09:32:51.615Z,33.40
2023-01-11T09:33:51.499Z,33.00
2023-01-11T09:34:51.419Z,32.90
2023-01-11T09:35:51.323Z,34.00
2023-01-11T09:36:51.220Z,34.30
2023-01-11T09:37:51.134Z,29.30
2023-01-11T09:38:51.032Z,28.40
2023-01-11T09:39:50.941Z,30.10
2023-01-11T09:40:50.839Z,28.20
2023-01-11T09:41:50.767Z,29.60
2023-01-11T09:42:50.682Z,32.80
2023-01-11T09:43:50.581Z,31.60
2023-01-11T09:44:50.465Z,28.70
2023-01-11T09:45:50.403Z,21.60
2023-01-11T09:46:50.306Z,26.00
2023-01-11T09:47:50.256Z,23.60
2023-01-11T09:48:50.118Z,31.60
2023-01-11T09:49:50.067Z,29.40
2023-01-11T09:50:50.004Z,30.50
2023-01-11T09:51:49.819Z,32.00
2023-01-11T09:52:49.712Z,29.10
2023-01-11T09:53:49.616Z,31.20
2023-01-11T09:54:49.537Z,33.40
2023-01-11T09:55:49.429Z,32.10
2023-01-11T09:56:49.338Z,33.50
2023-01-11T09:57:49.347Z,30.30
2023-01-11T09:58:49.162Z,36.20
2023-01-11T09:59:49.076Z,36.60
2023-01-11T10:00:48.994Z,36.60
2023-01-11T10:01:48.887Z,37.50
2023-01-11T10:02:48.787Z,39.90
2023-01-11T10:03:48.707Z,42.00
2023-01-11T10:04:48.678Z,40.10
2023-01-11T10:05:48.509Z,45.70
2023-01-11T10:06:48.409Z,47.50
2023-01-11T10:07:48.327Z,51.80
2023-01-11T10:18:26.623Z,45.60
2023-01-11T10:18:26.730Z,45.50
2023-01-11T10:18:27.734Z,43.90
2023-01-11T10:18:28.622Z,43.50
2023-01-11T10:19:11.914Z,38.00
2023-01-11T10:19:48.340Z,41.10
2023-01-11T10:20:47.112Z,41.10
2023-01-11T10:21:47.040Z,39.40
2023-01-11T10:22:46.915Z,34.80
2023-01-11T10:23:47.607Z,40.70
2023-01-11T10:24:46.731Z,38.20
2023-01-11T10:25:46.619Z,36.90
2023-01-11T10:26:46.587Z,32.90
2023-01-11T10:27:46.452Z,33.30
2023-01-11T10:28:46.341Z,35.30
2023-01-11T10:29:46.240Z,30.70
2023-01-11T10:30:46.175Z,36.50
2023-01-11T10:31:46.086Z,36.10
2023-01-11T10:32:45.986Z,36.20
2023-01-11T10:33:45.856Z,40.00
2023-01-11T10:34:45.759Z,35.90
2023-01-11T10:35:45.922Z,39.60
2023-01-11T10:36:45.571Z,36.00
2023-01-11T10:37:45.454Z,40.90
2023-01-11T10:38:45.375Z,35.30
2023-01-11T10:39:45.276Z,38.40
2023-01-11T10:40:45.201Z,30.60
2023-01-11T10:41:45.086Z,30.10
2023-01-11T10:42:44.998Z,33.50
2023-01-11T10:43:44.901Z,32.60
2023-01-11T10:44:44.805Z,35.70
2023-01-11T10:45:44.764Z,27.00
2023-01-11T10:47:35.000Z,27.70
2023-01-11T10:48:34.970Z,28.80
2023-01-11T10:49:36.038Z,35.40
2023-01-11T10:50:34.907Z,34.70
2023-01-11T10:51:34.937Z,31.60
2023-01-11T10:52:34.857Z,33.30
2023-01-11T10:53:34.843Z,30.60
2023-01-11T10:54:34.797Z,36.50
2023-01-11T10:55:34.767Z,34.50
2023-01-11T10:56:34.760Z,33.50
2023-01-11T10:57:34.704Z,34.90
2023-01-11T10:58:34.669Z,30.40
2023-01-11T10:59:34.639Z,30.70
2023-01-11T11:00:34.661Z,31.00
2023-01-11T11:01:34.587Z,29.80
2023-01-11T11:02:34.647Z,36.60
2023-01-11T11:03:34.492Z,32.00
2023-01-11T11:04:34.501Z,34.00
2023-01-11T11:05:34.511Z,31.60
2023-01-11T11:06:34.414Z,31.00
2023-01-11T11:07:34.369Z,31.50
2023-01-11T11:08:34.326Z,30.20
2023-01-11T11:09:34.302Z,32.90
2023-01-11T11:10:34.270Z,32.50
2023-01-11T11:11:34.246Z,33.40
2023-01-11T11:12:34.191Z,38.50
2023-01-11T11:13:34.171Z,37.80
2023-01-11T11:14:34.121Z,30.60
2023-01-11T11:15:34.089Z,32.20
2023-01-11T11:16:34.093Z,36.00
2023-01-11T11:17:34.052Z,29.90
2023-01-11T11:18:33.998Z,28.60
2023-01-11T11:19:33.969Z,27.70
2023-01-11T11:20:33.935Z,25.30
2023-01-11T11:21:33.933Z,25.50
2023-01-11T11:22:33.880Z,29.50
2023-01-11T11:23:33.833Z,26.70
2023-01-11T11:24:33.809Z,25.80
2023-01-11T11:25:33.779Z,26.10
2023-01-11T11:26:33.762Z,24.20
2023-01-11T11:27:33.712Z,22.40
2023-01-11T11:28:33.749Z,25.30
2023-01-11T11:29:33.653Z,23.40
2023-01-11T11:30:33.625Z,20.90
2023-01-11T11:31:33.606Z,20.90
2023-01-11T11:32:36.371Z,23.70
2023-01-11T11:33:33.564Z,21.70
2023-01-11T11:34:33.525Z,23.20
2023-01-11T11:35:33.513Z,24.10
2023-01-11T11:36:33.479Z,26.60
2023-01-11T11:37:33.427Z,24.90
2023-01-11T11:38:33.444Z,23.00
2023-01-11T11:39:33.405Z,26.60
2023-01-11T11:40:33.351Z,17.60
2023-01-11T11:41:33.296Z,15.30
2023-01-11T11:42:33.269Z,13.90
2023-01-11T11:43:33.248Z,18.60
2023-01-11T11:44:33.219Z,19.80
2023-01-11T11:45:33.209Z,16.20
2023-01-11T11:46:33.148Z,17.00
2023-01-11T11:47:33.120Z,15.10
2023-01-11T11:48:33.078Z,17.40
2023-01-11T11:49:33.056Z,16.80
2023-01-11T11:50:44.335Z,13.20
2023-01-11T11:51:33.999Z,14.50
2023-01-11T11:52:32.958Z,13.70
2023-01-11T11:53:32.951Z,14.60
2023-01-11T11:54:32.941Z,10.80
2023-01-11T11:55:32.878Z,12.70
2023-01-11T11:56:32.866Z,13.20
2023-01-11T11:57:32.829Z,16.30
2023-01-11T11:58:32.862Z,12.90
2023-01-11T11:59:32.800Z,14.70
2023-01-11T12:00:32.729Z,10.10
2023-01-11T12:01:32.755Z,12.20
2023-01-11T12:02:32.683Z,11.40
2023-01-11T12:03:32.609Z,13.00
2023-01-11T12:04:32.598Z,13.00
2023-01-11T12:05:32.544Z,10.80
2023-01-11T12:06:32.513Z,11.10
2023-01-11T12:07:34.435Z,11.40
2023-01-11T12:08:32.442Z,9.00
2023-01-11T12:09:32.496Z,15.50
2023-01-11T12:10:32.388Z,12.80
2023-01-11T12:11:32.335Z,11.30
2023-01-11T12:12:32.317Z,11.60
2023-01-11T12:13:32.277Z,12.10
2023-01-11T12:14:32.234Z,11.90
2023-01-11T12:15:32.184Z,13.10
2023-01-11T12:16:32.195Z,14.60
2023-01-11T12:17:32.115Z,15.60
2023-01-11T12:18:32.083Z,17.00
2023-01-11T12:19:32.027Z,18.00
2023-01-11T12:20:32.006Z,19.60
2023-01-11T12:21:31.962Z,19.70
2023-01-11T12:22:31.969Z,23.20
2023-01-11T12:23:31.895Z,18.70
2023-01-11T12:24:31.863Z,20.00
2023-01-11T12:25:31.808Z,18.70
2023-01-11T12:26:31.790Z,19.70
2023-01-11T12:27:31.756Z,22.60
2023-01-11T12:28:31.736Z,20.00
2023-01-11T12:29:31.697Z,24.90
2023-01-11T12:30:31.659Z,18.90
2023-01-11T12:31:31.601Z,20.30
2023-01-11T12:32:31.572Z,20.00
2023-01-11T12:33:31.540Z,20.20
2023-01-11T12:34:31.509Z,20.50
2023-01-11T12:35:31.464Z,20.30
2023-01-11T12:36:31.461Z,22.00
2023-01-11T12:37:31.388Z,19.80
2023-01-11T12:38:31.368Z,24.60
2023-01-11T12:39:31.359Z,21.50
2023-01-11T12:40:31.371Z,20.80
2023-01-11T12:41:31.233Z,24.60
2023-01-11T12:42:31.196Z,20.20
2023-01-11T12:43:31.246Z,23.70
2023-01-11T12:44:31.109Z,20.80
2023-01-11T12:45:31.063Z,21.90
2023-01-11T12:46:31.048Z,24.10
2023-01-11T12:47:30.981Z,19.60
2023-01-11T12:48:31.029Z,21.50
2023-01-11T12:49:30.949Z,21.00
2023-01-11T12:50:30.850Z,21.70
2023-01-11T12:51:30.818Z,18.50
2023-01-11T12:52:30.871Z,22.00
2023-01-11T12:53:30.742Z,21.90
2023-01-11T12:54:30.680Z,18.60
2023-01-11T12:55:30.771Z,21.40
2023-01-11T12:56:30.578Z,21.70
2023-01-11T12:57:30.575Z,19.70
2023-01-11T12:58:30.586Z,18.70